Time;durP1;ratioP1;P1;durP2;ratioP2;P2;SDS_P1;SDS_P2;PMS_P1;PMS_P2;Temp;Humidity;BMP_temperature;BMP_pressure;BME280_temperature;BME280_humidity;BME280_pressure;Samples;Min_cycle;Max_cycle;Signal;HPM_P1;HPM_P2
2023/07/22 00:01:25;;;;;;;;;;;;;;;16.94;63.34;99485.00;5080670;28;1676;-77
2023/07/22 00:03:52;;;;;;;;;;;;;;;17.05;62.80;99488.41;5063623;28;1643;-77
2023/07/22 00:06:19;;;;;;;;;;;;;;;16.99;63.19;99486.84;5082623;28;1967;-76
2023/07/22 00:08:45;;;;;;;;;;;;;;;17.00;63.10;99483.03;5062850;28;1821;-77
2023/07/22 00:11:12;;;;;;;;;;;;;;;17.00;62.96;99483.88;5083895;28;1727;-77
2023/07/22 00:13:38;;;;;;;;;;;;;;;17.01;62.94;99488.19;5083433;28;1671;-78
2023/07/22 00:16:05;;;;;;;;;;;;;;;17.07;62.78;99486.22;5062148;28;1827;-76
2023/07/22 00:18:32;;;;;;;;;;;;;;;16.92;63.27;99486.41;5081872;28;1881;-76
2023/07/22 00:20:58;;;;;;;;;;;;;;;16.84;63.45;99487.81;5083074;28;1684;-77
2023/07/22 00:23:25;;;;;;;;;;;;;;;16.94;62.99;99484.19;5082674;28;1666;-79
2023/07/22 00:25:51;;;;;;;;;;;;;;;16.81;63.50;99488.41;5081417;28;2023;-79
2023/07/22 00:28:18;;;;;;;;;;;;;;;16.83;63.22;99490.84;5079229;28;1981;-78
2023/07/22 00:30:45;;;;;;;;;;;;;;;16.69;63.93;99482.50;5083487;28;1498;-76
2023/07/22 00:33:12;;;;;;;;;;;;;;;16.68;63.70;99487.13;5064219;28;1353;-76
2023/07/22 00:35:39;;;;;;;;;;;;;;;16.95;63.04;99485.81;5055588;28;2260;-77
2023/07/22 00:38:05;;;;;;;;;;;;;;;16.67;63.78;99485.50;5056938;28;2143;-77
2023/07/22 00:40:32;;;;;;;;;;;;;;;16.67;64.01;99485.50;5074471;28;2109;-75
2023/07/22 00:43:00;;;;;;;;;;;;;;;16.57;64.15;99486.41;5072865;28;2082;-77
2023/07/22 00:45:26;;;;;;;;;;;;;;;16.80;63.40;99487.59;5073147;28;2031;-77
2023/07/22 00:47:53;;;;;;;;;;;;;;;16.80;63.33;99490.31;5074027;28;2237;-77
2023/07/22 00:50:19;;;;;;;;;;;;;;;16.66;63.74;99488.50;5056130;28;2127;-78
2023/07/22 00:52:46;;;;;;;;;;;;;;;16.59;64.04;99483.41;5081072;28;2111;-78
2023/07/22 00:55:12;;;;;;;;;;;;;;;16.64;63.90;99482.53;5083548;28;1851;-79
2023/07/22 00:57:39;;;;;;;;;;;;;;;16.64;63.70;99488.78;5082255;28;1963;-76
2023/07/22 01:00:07;;;;;;;;;;;;;;;16.72;63.55;99488.16;5073719;28;2223;-75
2023/07/22 01:02:34;;;;;;;;;;;;;;;16.57;63.87;99483.69;5074194;28;2106;-78
2023/07/22 01:05:01;;;;;;;;;;;;;;;16.53;63.90;99482.63;5072539;28;2548;-76
2023/07/22 01:07:27;;;;;;;;;;;;;;;16.73;63.25;99483.53;5072737;28;2077;-80
2023/07/22 01:09:54;;;;;;;;;;;;;;;16.72;63.42;99487.38;5056334;28;2148;-79
2023/07/22 01:12:21;;;;;;;;;;;;;;;16.69;63.31;99482.50;5075365;28;2298;-78
2023/07/22 01:14:47;;;;;;;;;;;;;;;16.46;64.01;99482.13;5071887;28;2126;-77
2023/07/22 01:17:14;;;;;;;;;;;;;;;16.41;64.35;99484.88;5069726;28;2420;-75
2023/07/22 01:19:40;;;;;;;;;;;;;;;16.50;63.98;99482.38;5077010;28;2075;-75
2023/07/22 01:22:07;;;;;;;;;;;;;;;16.66;63.53;99477.63;5070703;28;2101;-77
2023/07/22 01:24:34;;;;;;;;;;;;;;;16.44;64.03;99478.91;5063105;28;2315;-77
2023/07/22 01:27:00;;;;;;;;;;;;;;;16.53;63.80;99482.63;5074660;28;2142;-77
2023/07/22 01:29:27;;;;;;;;;;;;;;;16.47;63.85;99475.63;5054818;28;2203;-77
2023/07/22 01:31:54;;;;;;;;;;;;;;;16.43;64.06;99473.75;5075340;28;1975;-78
2023/07/22 01:34:20;;;;;;;;;;;;;;;16.36;64.18;99474.09;5075247;28;1979;-77
2023/07/22 01:36:47;;;;;;;;;;;;;;;16.40;64.04;99474.31;5074386;28;1940;-77
2023/07/22 01:39:13;;;;;;;;;;;;;;;16.36;64.25;99474.09;5075130;28;2057;-76
2023/07/22 01:41:40;;;;;;;;;;;;;;;16.41;64.08;99470.50;5062600;28;2209;-77
2023/07/22 01:44:07;;;;;;;;;;;;;;;16.52;63.79;99464.69;5074655;28;2078;-77
2023/07/22 01:46:34;;;;;;;;;;;;;;;16.27;64.38;99473.06;5076435;28;2075;-78
2023/07/22 01:49:01;;;;;;;;;;;;;;;16.36;64.10;99471.38;5074339;28;2493;-78
2023/07/22 01:51:28;;;;;;;;;;;;;;;16.39;63.86;99467.28;5075764;28;3891;-76
2023/07/22 01:53:56;;;;;;;;;;;;;;;16.50;63.73;99468.78;5075101;28;1993;-78
2023/07/22 01:56:23;;;;;;;;;;;;;;;16.26;64.46;99464.09;5078245;28;2649;-76
2023/07/22 01:58:50;;;;;;;;;;;;;;;16.27;64.34;99463.00;5075985;28;2061;-77
2023/07/22 02:01:16;;;;;;;;;;;;;;;16.37;63.96;99464.03;5081150;28;2046;-78
2023/07/22 02:03:42;;;;;;;;;;;;;;;16.21;64.47;99464.16;5086062;28;1749;-78
2023/07/22 02:06:09;;;;;;;;;;;;;;;16.17;64.67;99465.00;5084308;28;1886;-77
2023/07/22 02:08:36;;;;;;;;;;;;;;;16.15;64.66;99467.16;5085627;28;2523;-77
2023/07/22 02:11:03;;;;;;;;;;;;;;;16.25;64.40;99467.91;5063837;28;1895;-75
2023/07/22 02:13:30;;;;;;;;;;;;;;;16.17;64.48;99467.69;5064828;28;1712;-77
2023/07/22 02:15:57;;;;;;;;;;;;;;;16.10;64.71;99463.41;5084365;28;1834;-77
2023/07/22 02:18:23;;;;;;;;;;;;;;;16.08;64.89;99462.06;5084849;28;1663;-78
2023/07/22 02:20:50;;;;;;;;;;;;;;;16.19;64.39;99460.91;5065982;28;1409;-78
2023/07/22 02:23:16;;;;;;;;;;;;;;;16.06;64.88;99458.81;5085408;28;1375;-78
2023/07/22 02:25:43;;;;;;;;;;;;;;;16.13;64.58;99464.75;5084999;28;1998;-78
2023/07/22 02:28:10;;;;;;;;;;;;;;;16.17;64.52;99465.00;5062825;28;1910;-78
2023/07/22 02:30:37;;;;;;;;;;;;;;;16.16;64.46;99464.19;5085741;28;1764;-79
2023/07/22 02:33:03;;;;;;;;;;;;;;;16.18;64.34;99464.72;5066489;28;1021;-78
2023/07/22 02:35:30;;;;;;;;;;;;;;;16.05;64.69;99466.16;5078757;28;2258;-77
2023/07/22 02:37:56;;;;;;;;;;;;;;;16.16;64.40;99466.91;5075913;28;2081;-77
2023/07/22 02:40:23;;;;;;;;;;;;;;;16.05;64.71;99466.16;5055969;28;2116;-78
2023/07/22 02:42:49;;;;;;;;;;;;;;;16.05;64.67;99466.16;5074199;28;2059;-78
2023/07/22 02:45:16;;;;;;;;;;;;;;;16.00;64.87;99470.78;5056392;28;2292;-77
2023/07/22 02:47:42;;;;;;;;;;;;;;;15.99;64.84;99475.41;5074526;28;2191;-77
2023/07/22 02:50:09;;;;;;;;;;;;;;;16.05;64.61;99466.16;5075150;28;2206;-78
2023/07/22 02:52:36;;;;;;;;;;;;;;;16.07;64.49;99465.88;5056096;28;2248;-78
2023/07/22 02:55:02;;;;;;;;;;;;;;;16.04;64.66;99469.16;5058609;28;2070;-76
2023/07/22 02:57:29;;;;;;;;;;;;;;;16.11;64.34;99472.34;5073469;28;2227;-78
2023/07/22 02:59:55;;;;;;;;;;;;;;;16.05;64.46;99470.78;5074621;28;2312;-78
2023/07/22 03:02:22;;;;;;;;;;;;;;;16.00;64.71;99479.78;5073087;28;2098;-76
2023/07/22 03:04:48;;;;;;;;;;;;;;;15.96;64.77;99477.91;5056045;28;2067;-77
2023/07/22 03:07:15;;;;;;;;;;;;;;;16.00;64.57;99479.78;5079423;28;2130;-78
2023/07/22 03:09:42;;;;;;;;;;;;;;;15.95;64.69;99482.53;5076589;28;2188;-78
2023/07/22 03:12:08;;;;;;;;;;;;;;;16.05;64.31;99476.19;5075022;28;2219;-78
2023/07/22 03:14:37;;;;;;;;;;;;;;;16.03;64.30;99481.94;5075545;28;2084;-77
2023/07/22 03:17:04;;;;;;;;;;;;;;;15.91;64.68;99470.56;5074773;28;2368;-78
2023/07/22 03:19:30;;;;;;;;;;;;;;;15.86;64.91;99476.88;5054348;28;2143;-78
2023/07/22 03:21:57;;;;;;;;;;;;;;;15.91;64.72;99476.00;5075220;28;2112;-79
2023/07/22 03:24:25;;;;;;;;;;;;;;;15.96;64.44;99472.47;5078776;28;2445;-78
2023/07/22 03:26:51;;;;;;;;;;;;;;;16.20;63.78;99475.28;5072753;28;2075;-79
2023/07/22 03:29:18;;;;;;;;;;;;;;;15.97;64.44;99474.91;5073191;28;2194;-77
2023/07/22 03:31:44;;;;;;;;;;;;;;;15.98;64.33;99479.25;5075107;28;2065;-77
2023/07/22 03:34:11;;;;;;;;;;;;;;;15.99;64.26;99475.41;5073792;28;1983;-77
2023/07/22 03:36:38;;;;;;;;;;;;;;;15.95;64.34;99474.38;5075097;28;2033;-77
2023/07/22 03:39:04;;;;;;;;;;;;;;;15.89;64.60;99476.31;5074760;28;2085;-77
2023/07/22 03:41:31;;;;;;;;;;;;;;;15.87;64.59;99470.34;5054710;28;1983;-78
2023/07/22 03:43:57;;;;;;;;;;;;;;;15.86;64.56;99474.16;5076362;28;1965;-79
2023/07/22 03:46:24;;;;;;;;;;;;;;;15.99;64.23;99478.13;5057834;28;2038;-79
2023/07/22 03:48:50;;;;;;;;;;;;;;;15.86;64.50;99479.59;5076236;28;2026;-77
2023/07/22 03:51:17;;;;;;;;;;;;;;;15.93;64.29;99471.13;5082462;28;1850;-78
2023/07/22 03:53:43;;;;;;;;;;;;;;;15.93;64.25;99471.13;5062187;28;1746;-77
2023/07/22 03:56:10;;;;;;;;;;;;;;;15.95;64.08;99477.09;5062673;28;1670;-78
2023/07/22 03:58:37;;;;;;;;;;;;;;;16.08;63.72;99473.72;5081935;28;1813;-77
2023/07/22 04:01:03;;;;;;;;;;;;;;;15.98;64.07;99476.53;5080759;28;1866;-76
2023/07/22 04:03:30;;;;;;;;;;;;;;;16.03;63.93;99473.78;5081976;28;1620;-77
2023/07/22 04:05:56;;;;;;;;;;;;;;;15.89;64.25;99478.22;5082540;28;1776;-77
2023/07/22 04:08:23;;;;;;;;;;;;;;;15.82;64.49;99473.06;5064355;28;1977;-76
2023/07/22 04:10:49;;;;;;;;;;;;;;;16.02;63.82;99483.00;5063783;28;1931;-77
2023/07/22 04:13:41;;;;;;;;;;;;;;;16.01;63.76;99477.88;5093347;28;1670;-77
2023/07/22 04:16:29;;;;;;;;;;;;;;;15.84;64.26;99472.81;5087937;28;1735;-77
2023/07/22 04:19:20;;;;;;;;;;;;;;;15.89;64.20;99472.78;5084754;28;3451;-78
2023/07/22 04:22:07;;;;;;;;;;;;;;;15.90;64.06;99474.41;5079627;28;3484;-78
2023/07/22 04:24:54;;;;;;;;;;;;;;;15.93;64.01;99484.69;5092444;28;1477;-77
2023/07/22 04:27:40;;;;;;;;;;;;;;;15.84;64.14;99479.03;5087839;28;1907;-76
2023/07/22 04:30:21;;;;;;;;;;;;;;;15.78;64.38;99477.44;5081419;28;1697;-77
2023/07/22 04:32:47;;;;;;;;;;;;;;;15.91;63.97;99481.44;5083935;28;1577;-76
2023/07/22 04:35:14;;;;;;;;;;;;;;;15.82;64.25;99481.22;5075400;28;2134;-77
2023/07/22 04:37:41;;;;;;;;;;;;;;;15.81;64.09;99476.88;5071114;28;2537;-77
2023/07/22 04:40:11;;;;;;;;;;;;;;;15.90;63.83;99482.53;5072736;28;1969;-77
2023/07/22 04:42:38;;;;;;;;;;;;;;;15.82;64.06;99477.69;5070585;28;2099;-75
2023/07/22 04:45:04;;;;;;;;;;;;;;;15.86;63.93;99478.78;5055589;28;2105;-78
2023/07/22 04:47:31;;;;;;;;;;;;;;;15.83;64.01;99476.63;5074210;28;2094;-77
2023/07/22 04:49:57;;;;;;;;;;;;;;;15.81;64.26;99479.59;5075082;28;2540;-76
2023/07/22 04:52:24;;;;;;;;;;;;;;;15.81;64.16;99482.31;5076249;28;2024;-77
2023/07/22 04:54:50;;;;;;;;;;;;;;;15.78;64.12;99476.66;5069292;28;2232;-78
2023/07/22 04:57:18;;;;;;;;;;;;;;;15.81;64.00;99476.09;5074897;28;2446;-77
2023/07/22 04:59:44;;;;;;;;;;;;;;;15.78;64.01;99468.50;5083156;28;1979;-75
2023/07/22 05:02:11;;;;;;;;;;;;;;;15.82;63.85;99481.22;5070934;28;2218;-78
2023/07/22 05:04:37;;;;;;;;;;;;;;;15.85;63.77;99479.84;5053284;28;2048;-77
2023/07/22 05:07:04;;;;;;;;;;;;;;;15.82;63.88;99474.97;5071559;28;2088;-78
2023/07/22 05:09:30;;;;;;;;;;;;;;;15.85;63.68;99469.81;5055293;28;1971;-78
2023/07/22 05:11:57;;;;;;;;;;;;;;;15.85;63.68;99475.25;5059439;28;2498;-77
2023/07/22 05:14:24;;;;;;;;;;;;;;;15.76;63.92;99470.69;5064581;28;1892;-77
2023/07/22 05:16:50;;;;;;;;;;;;;;;15.78;63.84;99480.16;5073041;28;1947;-79
2023/07/22 05:19:17;;;;;;;;;;;;;;;15.83;63.72;99473.91;5077048;28;2051;-78
2023/07/22 05:21:43;;;;;;;;;;;;;;;15.90;63.52;99477.91;5066805;28;1785;-77
2023/07/22 05:24:10;;;;;;;;;;;;;;;15.83;63.67;99477.44;5066955;28;1326;-77
2023/07/22 05:26:36;;;;;;;;;;;;;;;15.80;63.63;99478.00;5084446;28;1730;-76
2023/07/22 05:29:03;;;;;;;;;;;;;;;15.72;63.85;99477.75;5083100;28;1981;-77
2023/07/22 05:31:29;;;;;;;;;;;;;;;15.75;63.83;99475.31;5084806;28;1819;-78
2023/07/22 05:33:56;;;;;;;;;;;;;;;15.84;63.59;99475.53;5085601;28;1875;-78
2023/07/22 05:36:22;;;;;;;;;;;;;;;15.81;63.57;99474.19;5084640;28;1756;-77
2023/07/22 05:38:49;;;;;;;;;;;;;;;15.71;63.93;99479.69;5066755;28;1765;-76
2023/07/22 05:41:16;;;;;;;;;;;;;;;15.75;63.71;99472.59;5083867;28;1702;-75
2023/07/22 05:43:44;;;;;;;;;;;;;;;15.77;63.71;99475.03;5081677;28;1969;-75
2023/07/22 05:46:11;;;;;;;;;;;;;;;15.78;63.54;99482.06;5074258;28;1988;-75
2023/07/22 05:48:37;;;;;;;;;;;;;;;15.91;63.13;99478.72;5075842;28;2061;-74
2023/07/22 05:51:04;;;;;;;;;;;;;;;15.75;63.69;99491.59;5065681;28;2034;-77
2023/07/22 05:53:30;;;;;;;;;;;;;;;15.82;63.35;99475.78;5085722;28;1678;-76
2023/07/22 05:55:57;;;;;;;;;;;;;;;15.83;63.40;99482.84;5085120;28;1978;-74
2023/07/22 05:58:23;;;;;;;;;;;;;;;15.81;63.47;99482.31;5083840;28;1706;-78
2023/07/22 06:00:51;;;;;;;;;;;;;;;15.81;63.40;99487.75;5081040;28;1884;-76
2023/07/22 06:03:17;;;;;;;;;;;;;;;15.84;63.34;99489.91;5082689;28;1866;-77
2023/07/22 06:05:44;;;;;;;;;;;;;;;15.95;62.85;99490.66;5062441;28;1915;-76
2023/07/22 06:08:10;;;;;;;;;;;;;;;15.87;63.19;99494.78;5083049;28;1914;-78
2023/07/22 06:10:38;;;;;;;;;;;;;;;15.85;63.00;99491.53;5051697;28;2219;-76
2023/07/22 06:13:04;;;;;;;;;;;;;;;15.85;63.13;99494.25;5076532;28;2025;-78
2023/07/22 06:15:31;;;;;;;;;;;;;;;15.82;63.24;99494.78;5069056;28;1941;-76
2023/07/22 06:17:57;;;;;;;;;;;;;;;15.83;63.25;99501.06;5074960;28;1875;-77
2023/07/22 06:20:24;;;;;;;;;;;;;;;15.79;63.38;99499.97;5075627;28;2119;-76
2023/07/22 06:22:50;;;;;;;;;;;;;;;15.87;62.96;99494.78;5078068;28;2421;-77
2023/07/22 06:25:17;;;;;;;;;;;;;;;15.73;63.44;99501.91;5076393;28;2180;-76
2023/07/22 06:27:44;;;;;;;;;;;;;;;15.82;63.15;99493.97;5058854;28;2069;-78
2023/07/22 06:30:10;;;;;;;;;;;;;;;15.76;63.31;99504.06;5076444;28;2167;-77
2023/07/22 06:32:37;;;;;;;;;;;;;;;15.81;63.21;99497.81;5073922;28;2367;-75
2023/07/22 06:35:04;;;;;;;;;;;;;;;15.78;63.19;99493.75;5077586;28;2165;-77
2023/07/22 06:37:30;;;;;;;;;;;;;;;15.94;62.83;99486.31;5074777;28;2590;-75
2023/07/22 06:39:57;;;;;;;;;;;;;;;15.85;63.01;99488.81;5073727;28;2385;-75
2023/07/22 06:42:23;;;;;;;;;;;;;;;15.87;63.02;99486.63;5079858;28;2083;-77
2023/07/22 06:44:50;;;;;;;;;;;;;;;15.83;63.23;99485.56;5075179;28;2117;-76
2023/07/22 06:47:16;;;;;;;;;;;;;;;16.01;62.68;99491.44;5056480;28;2188;-78
2023/07/22 06:49:43;;;;;;;;;;;;;;;15.82;63.06;99494.78;5071192;28;3479;-78
2023/07/22 06:52:09;;;;;;;;;;;;;;;15.73;63.36;99492.94;5076559;28;2980;-75
2023/07/22 06:54:36;;;;;;;;;;;;;;;15.78;63.26;99492.94;5076168;28;2085;-77
2023/07/22 06:57:02;;;;;;;;;;;;;;;15.98;62.62;99492.81;5078017;28;2583;-76
2023/07/22 06:59:29;;;;;;;;;;;;;;;15.76;63.32;99495.91;5074215;28;1995;-76
2023/07/22 07:01:55;;;;;;;;;;;;;;;15.90;62.90;99487.97;5055669;28;2113;-75
2023/07/22 07:04:22;;;;;;;;;;;;;;;16.03;62.57;99492.78;5083556;28;2227;-76
2023/07/22 07:06:48;;;;;;;;;;;;;;;16.01;62.68;99489.53;5083428;28;2003;-76
2023/07/22 07:09:15;;;;;;;;;;;;;;;15.89;62.98;99494.50;5059519;28;2351;-76
2023/07/22 07:11:42;;;;;;;;;;;;;;;16.02;62.53;99498.50;5057608;28;2077;-76
2023/07/22 07:14:08;;;;;;;;;;;;;;;15.99;62.52;99491.72;5075922;28;2124;-76
2023/07/22 07:16:35;;;;;;;;;;;;;;;15.94;62.65;99496.34;5073964;28;2071;-77
2023/07/22 07:19:01;;;;;;;;;;;;;;;15.90;62.87;99490.69;5056883;28;2180;-78
2023/07/22 07:21:28;;;;;;;;;;;;;;;15.81;63.08;99493.19;5070625;28;2143;-79
2023/07/22 07:23:54;;;;;;;;;;;;;;;15.73;63.28;99496.47;5076011;28;2285;-78
2023/07/22 07:26:21;;;;;;;;;;;;;;;15.79;63.33;99495.34;5052885;28;2583;-76
2023/07/22 07:28:48;;;;;;;;;;;;;;;15.76;63.37;99489.69;5055390;28;2376;-76
2023/07/22 07:31:14;;;;;;;;;;;;;;;16.02;62.67;99498.50;5058327;28;2128;-74
2023/07/22 07:33:47;;;;;;;;;;;;;;;15.90;62.77;99493.41;5055735;28;2034;-77
2023/07/22 07:36:14;;;;;;;;;;;;;;;15.69;63.49;99497.31;5077105;28;2340;-75
2023/07/22 07:38:41;;;;;;;;;;;;;;;15.71;63.59;99495.16;5065800;28;1755;-76
2023/07/22 07:41:08;;;;;;;;;;;;;;;15.73;63.56;99496.47;5079253;28;1980;-75
2023/07/22 07:43:35;;;;;;;;;;;;;;;15.99;62.73;99491.72;5055941;28;2317;-78
2023/07/22 07:46:01;;;;;;;;;;;;;;;15.82;63.01;99493.97;5075305;28;2027;-76
2023/07/22 07:48:28;;;;;;;;;;;;;;;15.65;63.68;99489.72;5075149;28;2012;-75
2023/07/22 07:50:55;;;;;;;;;;;;;;;15.64;63.76;99493.50;5073651;28;3569;-75
2023/07/22 07:53:21;;;;;;;;;;;;;;;15.62;63.81;99492.97;5060289;28;3042;-76
2023/07/22 07:55:48;;;;;;;;;;;;;;;15.63;63.76;99493.78;5081597;28;2129;-75
2023/07/22 07:58:14;;;;;;;;;;;;;;;15.79;63.30;99491.81;5060697;28;2935;-74
2023/07/22 08:00:41;;;;;;;;;;;;;;;15.70;63.59;99485.38;5082312;28;1762;-76
2023/07/22 08:03:07;;;;;;;;;;;;;;;15.80;63.33;99483.41;5083047;28;1678;-77
2023/07/22 08:05:34;;;;;;;;;;;;;;;15.95;62.75;99484.44;5061614;28;2358;-75
2023/07/22 08:08:00;;;;;;;;;;;;;;;15.96;62.65;99483.31;5062643;28;2058;-76
2023/07/22 08:10:27;;;;;;;;;;;;;;;15.86;62.86;99481.50;5081232;28;2836;-76
2023/07/22 08:12:53;;;;;;;;;;;;;;;15.93;62.61;99490.13;5070769;28;2101;-78
2023/07/22 08:15:20;;;;;;;;;;;;;;;16.11;62.22;99496.81;5083351;28;1770;-73
2023/07/22 08:17:46;;;;;;;;;;;;;;;16.07;62.15;99499.28;5065310;28;2090;-75
2023/07/22 08:20:13;;;;;;;;;;;;;;;15.98;62.47;99498.25;5064079;28;2446;-78
2023/07/22 08:22:39;;;;;;;;;;;;;;;15.94;62.75;99494.44;5063968;28;1679;-77
2023/07/22 08:25:06;;;;;;;;;;;;;;;15.98;62.51;99497.44;5082966;28;1954;-75
2023/07/22 08:27:33;;;;;;;;;;;;;;;15.99;62.68;99502.56;5065210;28;1789;-77
2023/07/22 08:29:59;;;;;;;;;;;;;;;16.00;62.64;99511.53;5082188;28;2146;-77
2023/07/22 08:32:26;;;;;;;;;;;;;;;15.81;63.19;99506.75;5077572;28;2422;-75
2023/07/22 13:01:14;;;;;;;;;;;;;;;15.89;64.92;99598.50;598447;22;3295;-89
2023/07/22 13:03:41;;;;;;;;;;;;;;;15.89;64.96;99601.19;5030064;28;3454;-74
2023/07/22 13:06:08;;;;;;;;;;;;;;;15.89;64.90;99609.34;5039318;28;2954;-75
2023/07/22 13:08:40;;;;;;;;;;;;;;;15.90;64.86;99610.16;5036054;28;2365;-74
2023/07/22 13:11:13;;;;;;;;;;;;;;;15.89;64.95;99616.69;5041643;28;3175;-75
2023/07/22 13:13:40;;;;;;;;;;;;;;;15.89;64.99;99603.13;5053089;28;2354;-74
2023/07/22 13:16:06;;;;;;;;;;;;;;;15.89;64.93;99613.97;5041251;28;2322;-75
2023/07/22 13:18:33;;;;;;;;;;;;;;;15.88;64.92;99607.72;5038629;28;2318;-75
2023/07/22 13:21:00;;;;;;;;;;;;;;;15.88;64.95;99604.19;5045794;28;2478;-76
2023/07/22 13:23:26;;;;;;;;;;;;;;;15.89;64.90;99613.97;5046183;28;3040;-77
2023/07/22 13:29:02;;;;;;;;;;;;;;;15.88;64.86;99602.31;5046311;28;2264;-76
2023/07/22 13:31:29;;;;;;;;;;;;;;;15.89;64.91;99603.13;5044104;28;2612;-76
2023/07/22 13:33:55;;;;;;;;;;;;;;;15.88;64.94;99587.88;5041000;28;2342;-76
2023/07/22 13:36:22;;;;;;;;;;;;;;;15.88;64.94;99594.16;5045009;28;2323;-77
2023/07/22 13:38:49;;;;;;;;;;;;;;;15.88;64.94;99590.59;5045880;28;2247;-76
2023/07/22 13:41:15;;;;;;;;;;;;;;;15.88;64.94;99588.72;5043280;28;2681;-77
2023/07/22 13:43:42;;;;;;;;;;;;;;;15.89;64.81;99589.53;5043754;28;2340;-76
2023/07/22 13:46:09;;;;;;;;;;;;;;;15.88;64.93;99577.03;5060269;28;2530;-77
2023/07/22 13:48:36;;;;;;;;;;;;;;;15.88;64.94;99575.16;5043357;28;2221;-76
2023/07/22 13:51:02;;;;;;;;;;;;;;;15.89;64.85;99574.06;5043884;28;2552;-76
2023/07/22 13:53:29;;;;;;;;;;;;;;;15.89;64.88;99574.06;5045991;28;2204;-76
2023/07/22 13:59:03;;;;;;;;;;;;;;;15.89;64.86;99568.63;5094827;27;2295;-74
2023/07/22 14:01:35;;;;;;;;;;;;;;;15.89;64.83;99565.91;5098696;28;1340;-75
2023/07/22 14:04:02;;;;;;;;;;;;;;;15.89;64.91;99555.03;5094681;28;2007;-75
2023/07/22 14:06:32;;;;;;;;;;;;;;;15.89;64.87;99556.94;5094528;28;2299;-75
2023/07/22 14:09:00;;;;;;;;;;;;;;;15.90;64.84;99553.13;5096690;28;2355;-75
2023/07/22 14:11:30;;;;;;;;;;;;;;;15.90;64.89;99555.84;5096383;28;1325;-75
2023/07/22 14:13:57;;;;;;;;;;;;;;;15.90;64.82;99551.22;5201849;22;4380;-78
2023/07/22 14:16:24;;;;;;;;;;;;;;;15.89;64.91;99555.03;5091123;28;2963;-77
2023/07/22 14:18:51;;;;;;;;;;;;;;;15.90;64.84;99548.50;5094465;28;2268;-77
2023/07/22 14:21:18;;;;;;;;;;;;;;;15.90;64.91;99548.50;5095690;28;2973;-77
2023/07/22 14:23:45;;;;;;;;;;;;;;;15.89;64.85;99551.53;5096566;28;2501;-77
2023/07/22 14:26:11;;;;;;;;;;;;;;;15.90;64.85;99555.84;5112779;28;1219;-77
2023/07/22 14:28:46;;;;;;;;;;;;;;;15.88;64.78;99564.28;5096313;28;1947;-77
2023/07/22 14:31:15;;;;;;;;;;;;;;;15.89;64.91;99565.91;5081308;28;2148;-77
2023/07/22 14:33:46;;;;;;;;;;;;;;;15.90;64.90;99559.38;5095098;28;2742;-78
2023/07/22 14:36:13;;;;;;;;;;;;;;;15.90;64.83;99564.81;5092203;28;2243;-76
2023/07/22 14:38:39;;;;;;;;;;;;;;;15.90;64.95;99561.28;5096454;28;2405;-77
2023/07/22 14:41:06;;;;;;;;;;;;;;;15.90;64.83;99567.53;5094724;28;2096;-76
2023/07/22 14:43:32;;;;;;;;;;;;;;;15.91;64.92;99568.31;5096324;28;2254;-76
2023/07/22 14:45:59;;;;;;;;;;;;;;;15.92;64.78;99563.72;5094486;28;2298;-77
2023/07/22 14:48:26;;;;;;;;;;;;;;;15.92;64.91;99569.16;5094564;28;2143;-77
2023/07/22 14:50:53;;;;;;;;;;;;;;;15.91;64.82;99565.59;5108857;28;2698;-77
2023/07/22 14:53:22;;;;;;;;;;;;;;;15.91;64.86;99565.59;5112248;28;2135;-77
2023/07/22 14:55:49;;;;;;;;;;;;;;;15.92;64.85;99566.44;5079614;28;2065;-78
2023/07/22 14:58:15;;;;;;;;;;;;;;;15.92;64.78;99564.53;5097771;28;2142;-78
2023/07/22 15:00:42;;;;;;;;;;;;;;;15.92;64.77;99558.31;5095618;28;2615;-78
2023/07/22 15:03:09;;;;;;;;;;;;;;;15.93;64.79;99562.63;5096755;28;1932;-78
2023/07/22 15:05:35;;;;;;;;;;;;;;;15.92;64.77;99550.97;5093749;28;2201;-78
2023/07/22 15:08:03;;;;;;;;;;;;;;;15.94;64.77;99553.38;5093289;28;2487;-78
2023/07/22 15:10:29;;;;;;;;;;;;;;;15.94;64.81;99550.66;5077738;28;2354;-79
2023/07/22 15:12:56;;;;;;;;;;;;;;;15.94;64.75;99547.94;5078555;28;2484;-78
2023/07/22 15:15:23;;;;;;;;;;;;;;;15.95;64.77;99546.88;5078309;28;2151;-78
2023/07/22 15:17:49;;;;;;;;;;;;;;;15.96;64.72;99537.63;5081772;28;2084;-79
2023/07/22 15:20:16;;;;;;;;;;;;;;;15.95;64.76;99539.53;5083428;28;2036;-79
2023/07/22 15:22:42;;;;;;;;;;;;;;;15.97;64.72;99545.50;5098063;28;1524;-79
2023/07/22 15:25:09;;;;;;;;;;;;;;;15.98;64.72;99547.13;5082281;28;1526;-79
2023/07/22 15:27:35;;;;;;;;;;;;;;;16.00;64.66;99549.56;5097357;28;2154;-79
2023/07/22 15:30:02;;;;;;;;;;;;;;;16.01;64.61;99541.13;5084050;28;2076;-79
2023/07/22 15:32:29;;;;;;;;;;;;;;;16.05;64.49;99549.53;5084446;28;1509;-79
2023/07/22 15:34:55;;;;;;;;;;;;;;;16.04;64.56;99550.63;5096262;28;1968;-79
2023/07/22 15:37:22;;;;;;;;;;;;;;;16.05;64.38;99550.34;5082848;28;1981;-79
2023/07/22 15:39:48;;;;;;;;;;;;;;;16.07;64.44;99547.34;5084326;28;2297;-80
2023/07/22 15:42:15;;;;;;;;;;;;;;;16.10;64.41;99553.03;5083568;28;1686;-80
2023/07/22 15:44:42;;;;;;;;;;;;;;;16.10;64.36;99544.88;5086014;28;1265;-79
2023/07/22 15:47:08;;;;;;;;;;;;;;;16.10;64.38;99550.31;5097885;28;1860;-80
2023/07/22 15:49:35;;;;;;;;;;;;;;;16.11;64.33;99546.50;5097309;28;2175;-80
2023/07/22 15:52:01;;;;;;;;;;;;;;;16.13;64.32;99555.19;5099936;28;1517;-82
2023/07/22 15:54:28;;;;;;;;;;;;;;;16.15;64.32;99545.94;5081071;28;1966;-78
2023/07/22 15:56:55;;;;;;;;;;;;;;;16.16;64.28;99550.28;5097624;28;1548;-78
2023/07/22 15:59:21;;;;;;;;;;;;;;;16.15;64.36;99544.06;5097250;28;1902;-79
2023/07/22 16:01:48;;;;;;;;;;;;;;;16.18;64.32;99545.38;5095624;28;2074;-80
2023/07/22 16:04:14;;;;;;;;;;;;;;;16.17;64.16;99541.84;5082812;28;1027;-80
2023/07/22 16:06:41;;;;;;;;;;;;;;;16.17;64.11;99539.13;5066359;28;2093;-80
2023/07/22 16:09:08;;;;;;;;;;;;;;;16.19;64.12;99538.88;5081594;28;1339;-82
2023/07/22 16:11:34;;;;;;;;;;;;;;;16.19;64.00;99553.25;5078435;28;1639;-81
2023/07/22 16:14:01;;;;;;;;;;;;;;;16.20;63.98;99541.28;5079918;28;1316;-82
2023/07/22 16:16:27;;;;;;;;;;;;;;;16.21;63.99;99540.22;5079184;28;2266;-80
2023/07/22 16:18:54;;;;;;;;;;;;;;;16.23;63.96;99542.63;5093079;28;2045;-80
2023/07/22 16:21:21;;;;;;;;;;;;;;;16.22;64.00;99535.59;5091581;28;1567;-80
2023/07/22 16:23:48;;;;;;;;;;;;;;;16.23;63.95;99534.47;5081463;28;1406;-81
2023/07/22 16:26:15;;;;;;;;;;;;;;;16.24;63.67;99542.38;5083482;28;2053;-81
2023/07/22 16:28:41;;;;;;;;;;;;;;;16.24;63.90;99531.50;5081244;28;1485;-81
2023/07/22 16:31:08;;;;;;;;;;;;;;;16.24;63.85;99536.94;5093298;28;2026;-81
2023/07/22 16:33:34;;;;;;;;;;;;;;;16.26;63.75;99542.88;5093017;28;2164;-81
2023/07/22 16:36:01;;;;;;;;;;;;;;;16.26;63.83;99534.72;5072105;28;2170;-81
2023/07/22 16:38:28;;;;;;;;;;;;;;;16.26;63.76;99534.72;5075025;28;2103;-80
2023/07/22 16:40:54;;;;;;;;;;;;;;;16.26;63.88;99545.59;5084257;28;1644;-81
2023/07/22 16:43:21;;;;;;;;;;;;;;;16.27;63.84;99546.44;5078260;28;1456;-81
2023/07/22 16:45:49;;;;;;;;;;;;;;;16.27;63.82;99538.28;5078462;28;1363;-81
2023/07/22 16:48:16;;;;;;;;;;;;;;;16.27;63.94;99541.00;5078338;28;2128;-82
2023/07/22 16:50:45;;;;;;;;;;;;;;;16.28;63.89;99540.69;5075701;28;2157;-81
2023/07/22 16:53:22;;;;;;;;;;;;;;;16.28;63.84;99543.41;5077487;28;2069;-81
2023/07/22 16:55:52;;;;;;;;;;;;;;;16.28;63.89;99548.03;5078050;28;1494;-81
2023/07/22 16:58:19;;;;;;;;;;;;;;;16.29;63.83;99538.78;5079263;28;2068;-79
2023/07/22 17:00:47;;;;;;;;;;;;;;;16.30;63.84;99541.22;5090081;28;2209;-82
2023/07/22 17:03:14;;;;;;;;;;;;;;;16.31;nan;99536.59;5080121;28;2154;-80
2023/07/22 17:05:41;;;;;;;;;;;;;;;16.31;63.94;99545.56;5074025;28;2087;-81
2023/07/22 17:08:07;;;;;;;;;;;;;;;16.34;63.93;99536.03;5087795;28;2139;-81
2023/07/22 17:10:34;;;;;;;;;;;;;;;16.33;63.89;99537.94;5079122;28;2447;-83
2023/07/22 17:13:01;;;;;;;;;;;;;;;16.34;63.92;99534.13;5078833;28;1616;-81
2023/07/22 17:15:27;;;;;;;;;;;;;;;16.35;63.79;99532.22;5075913;28;2057;-81
2023/07/22 17:17:54;;;;;;;;;;;;;;;16.37;63.83;99526.50;5091428;28;2110;-82
2023/07/22 17:20:21;;;;;;;;;;;;;;;16.36;63.76;99525.72;5079497;28;1878;-82
2023/07/22 17:22:47;;;;;;;;;;;;;;;16.39;63.79;99537.94;5083078;28;1613;-81
2023/07/22 17:25:14;;;;;;;;;;;;;;;16.39;63.72;99525.16;5094449;28;2063;-83
2023/07/22 17:27:41;;;;;;;;;;;;;;;16.40;63.86;99523.22;5077500;28;2084;-80
2023/07/22 17:30:09;;;;;;;;;;;;;;;16.42;63.75;99529.22;5093038;28;1422;-80